sensor_id;sensor_type;location;lat;lon;timestamp;P1;durP1;ratioP1;P2;durP2;ratioP2
8213;SDS011;4148;47.974;7.824;2022-11-20T00:00:56;3.60;;;2.60;;
8213;SDS011;4148;47.974;7.824;2022-11-20T00:03:24;3.40;;;2.67;;
8213;SDS011;4148;47.974;7.824;2022-11-20T00:05:52;7.07;;;2.77;;
8213;SDS011;4148;47.974;7.824;2022-11-20T00:08:20;2.70;;;2.40;;
8213;SDS011;4148;47.974;7.824;2022-11-20T00:10:48;4.40;;;2.60;;
8213;SDS011;4148;47.974;7.824;2022-11-20T00:13:16;2.70;;;2.40;;
8213;SDS011;4148;47.974;7.824;2022-11-20T00:15:45;3.47;;;2.40;;
8213;SDS011;4148;47.974;7.824;2022-11-20T00:18:13;3.17;;;2.67;;
8213;SDS011;4148;47.974;7.824;2022-11-20T00:20:41;4.67;;;3.20;;
8213;SDS011;4148;47.974;7.824;2022-11-20T00:23:08;5.13;;;3.37;;
8213;SDS011;4148;47.974;7.824;2022-11-20T00:25:36;4.73;;;3.27;;
8213;SDS011;4148;47.974;7.824;2022-11-20T00:28:04;5.70;;;4.00;;
8213;SDS011;4148;47.974;7.824;2022-11-20T00:30:32;7.00;;;3.77;;
8213;SDS011;4148;47.974;7.824;2022-11-20T00:33:01;5.90;;;4.27;;
8213;SDS011;4148;47.974;7.824;2022-11-20T00:35:29;6.33;;;4.00;;
8213;SDS011;4148;47.974;7.824;2022-11-20T00:37:57;5.30;;;3.90;;
8213;SDS011;4148;47.974;7.824;2022-11-20T00:40:25;7.60;;;4.67;;
8213;SDS011;4148;47.974;7.824;2022-11-20T00:42:52;5.50;;;4.10;;
8213;SDS011;4148;47.974;7.824;2022-11-20T00:45:20;6.70;;;4.10;;
8213;SDS011;4148;47.974;7.824;2022-11-20T00:47:48;4.60;;;4.10;;
8213;SDS011;4148;47.974;7.824;2022-11-20T00:50:18;5.93;;;4.47;;
8213;SDS011;4148;47.974;7.824;2022-11-20T00:52:45;8.50;;;4.70;;
8213;SDS011;4148;47.974;7.824;2022-11-20T00:55:13;6.10;;;4.33;;
8213;SDS011;4148;47.974;7.824;2022-11-20T00:57:41;9.43;;;4.70;;
8213;SDS011;4148;47.974;7.824;2022-11-20T01:00:09;7.03;;;4.50;;
8213;SDS011;4148;47.974;7.824;2022-11-20T01:02:37;6.30;;;4.00;;
8213;SDS011;4148;47.974;7.824;2022-11-20T01:05:05;5.27;;;4.17;;
8213;SDS011;4148;47.974;7.824;2022-11-20T01:07:35;6.37;;;3.40;;
8213;SDS011;4148;47.974;7.824;2022-11-20T01:10:03;5.00;;;3.40;;
8213;SDS011;4148;47.974;7.824;2022-11-20T01:12:31;4.27;;;3.30;;
8213;SDS011;4148;47.974;7.824;2022-11-20T01:14:59;7.13;;;3.50;;
8213;SDS011;4148;47.974;7.824;2022-11-20T01:17:27;4.50;;;3.00;;
8213;SDS011;4148;47.974;7.824;2022-11-20T01:19:55;3.90;;;3.50;;
8213;SDS011;4148;47.974;7.824;2022-11-20T01:22:23;4.10;;;3.50;;
8213;SDS011;4148;47.974;7.824;2022-11-20T01:24:52;3.63;;;3.23;;
8213;SDS011;4148;47.974;7.824;2022-11-20T01:27:20;6.20;;;3.90;;
8213;SDS011;4148;47.974;7.824;2022-11-20T01:29:47;5.30;;;3.90;;
8213;SDS011;4148;47.974;7.824;2022-11-20T01:32:16;5.67;;;3.70;;
8213;SDS011;4148;47.974;7.824;2022-11-20T01:34:44;6.80;;;4.17;;
8213;SDS011;4148;47.974;7.824;2022-11-20T01:37:12;6.97;;;3.90;;
8213;SDS011;4148;47.974;7.824;2022-11-20T01:39:40;6.70;;;4.20;;
8213;SDS011;4148;47.974;7.824;2022-11-20T01:42:09;6.47;;;3.93;;
8213;SDS011;4148;47.974;7.824;2022-11-20T01:44:55;6.33;;;3.83;;
8213;SDS011;4148;47.974;7.824;2022-11-20T01:47:26;4.87;;;3.50;;
8213;SDS011;4148;47.974;7.824;2022-11-20T01:49:59;7.47;;;4.13;;
8213;SDS011;4148;47.974;7.824;2022-11-20T01:52:32;6.13;;;3.70;;
8213;SDS011;4148;47.974;7.824;2022-11-20T01:55:04;6.53;;;3.60;;
8213;SDS011;4148;47.974;7.824;2022-11-20T01:57:35;4.80;;;3.90;;
8213;SDS011;4148;47.974;7.824;2022-11-20T02:00:05;4.07;;;3.10;;
8213;SDS011;4148;47.974;7.824;2022-11-20T02:02:36;6.53;;;3.50;;
8213;SDS011;4148;47.974;7.824;2022-11-20T02:05:09;5.27;;;3.60;;
8213;SDS011;4148;47.974;7.824;2022-11-20T02:07:46;8.17;;;3.80;;
8213;SDS011;4148;47.974;7.824;2022-11-20T02:10:14;4.90;;;3.00;;
8213;SDS011;4148;47.974;7.824;2022-11-20T02:12:44;4.23;;;3.00;;
8213;SDS011;4148;47.974;7.824;2022-11-20T02:15:29;5.20;;;3.40;;
8213;SDS011;4148;47.974;7.824;2022-11-20T02:17:57;4.20;;;3.20;;
8213;SDS011;4148;47.974;7.824;2022-11-20T02:20:25;5.80;;;3.43;;
8213;SDS011;4148;47.974;7.824;2022-11-20T02:22:54;5.43;;;3.90;;
8213;SDS011;4148;47.974;7.824;2022-11-20T02:25:26;4.20;;;2.70;;
8213;SDS011;4148;47.974;7.824;2022-11-20T02:27:55;6.13;;;3.43;;
8213;SDS011;4148;47.974;7.824;2022-11-20T02:30:23;7.00;;;3.20;;
8213;SDS011;4148;47.974;7.824;2022-11-20T02:32:51;3.47;;;2.70;;
8213;SDS011;4148;47.974;7.824;2022-11-20T02:38:12;4.37;;;3.40;;
8213;SDS011;4148;47.974;7.824;2022-11-20T02:40:42;4.27;;;2.60;;
8213;SDS011;4148;47.974;7.824;2022-11-20T02:43:10;3.70;;;2.80;;
8213;SDS011;4148;47.974;7.824;2022-11-20T02:45:38;6.53;;;2.60;;
8213;SDS011;4148;47.974;7.824;2022-11-20T02:48:06;4.90;;;2.90;;
8213;SDS011;4148;47.974;7.824;2022-11-20T02:50:36;3.70;;;2.80;;
8213;SDS011;4148;47.974;7.824;2022-11-20T02:53:05;4.87;;;2.80;;
8213;SDS011;4148;47.974;7.824;2022-11-20T02:55:33;3.83;;;2.40;;
8213;SDS011;4148;47.974;7.824;2022-11-20T02:58:02;5.00;;;3.03;;
8213;SDS011;4148;47.974;7.824;2022-11-20T03:00:30;5.43;;;3.10;;
8213;SDS011;4148;47.974;7.824;2022-11-20T03:02:58;3.30;;;2.50;;
8213;SDS011;4148;47.974;7.824;2022-11-20T03:05:26;3.30;;;2.73;;
8213;SDS011;4148;47.974;7.824;2022-11-20T03:07:54;4.27;;;2.73;;
8213;SDS011;4148;47.974;7.824;2022-11-20T03:10:22;3.90;;;2.70;;
8213;SDS011;4148;47.974;7.824;2022-11-20T03:12:52;4.43;;;2.63;;
8213;SDS011;4148;47.974;7.824;2022-11-20T03:15:21;4.10;;;2.80;;
8213;SDS011;4148;47.974;7.824;2022-11-20T03:17:52;3.63;;;2.47;;
8213;SDS011;4148;47.974;7.824;2022-11-20T03:20:20;5.17;;;3.37;;
8213;SDS011;4148;47.974;7.824;2022-11-20T03:22:48;6.47;;;3.80;;
8213;SDS011;4148;47.974;7.824;2022-11-20T03:25:16;3.63;;;3.20;;
8213;SDS011;4148;47.974;7.824;2022-11-20T03:27:44;4.33;;;3.27;;
8213;SDS011;4148;47.974;7.824;2022-11-20T03:30:12;4.30;;;3.40;;
8213;SDS011;4148;47.974;7.824;2022-11-20T03:32:42;6.03;;;4.10;;
8213;SDS011;4148;47.974;7.824;2022-11-20T03:35:10;3.90;;;3.03;;
8213;SDS011;4148;47.974;7.824;2022-11-20T03:37:38;5.10;;;3.00;;
8213;SDS011;4148;47.974;7.824;2022-11-20T03:40:06;5.10;;;2.80;;
8213;SDS011;4148;47.974;7.824;2022-11-20T03:42:35;5.50;;;2.83;;
8213;SDS011;4148;47.974;7.824;2022-11-20T03:45:15;5.10;;;3.40;;
8213;SDS011;4148;47.974;7.824;2022-11-20T03:47:45;7.20;;;3.20;;
8213;SDS011;4148;47.974;7.824;2022-11-20T03:50:13;3.77;;;3.10;;
8213;SDS011;4148;47.974;7.824;2022-11-20T03:52:41;4.40;;;3.00;;
8213;SDS011;4148;47.974;7.824;2022-11-20T03:55:09;5.97;;;3.17;;
8213;SDS011;4148;47.974;7.824;2022-11-20T03:57:37;3.70;;;2.90;;
8213;SDS011;4148;47.974;7.824;2022-11-20T04:00:06;3.33;;;3.03;;
8213;SDS011;4148;47.974;7.824;2022-11-20T04:02:34;6.30;;;3.13;;
8213;SDS011;4148;47.974;7.824;2022-11-20T04:05:04;3.60;;;2.93;;
8213;SDS011;4148;47.974;7.824;2022-11-20T04:07:33;4.00;;;2.70;;
8213;SDS011;4148;47.974;7.824;2022-11-20T04:10:01;6.37;;;3.17;;
8213;SDS011;4148;47.974;7.824;2022-11-20T04:12:31;5.73;;;2.77;;
8213;SDS011;4148;47.974;7.824;2022-11-20T04:15:00;3.23;;;2.33;;
8213;SDS011;4148;47.974;7.824;2022-11-20T04:17:28;2.67;;;2.30;;
8213;SDS011;4148;47.974;7.824;2022-11-20T04:19:56;5.30;;;2.70;;
8213;SDS011;4148;47.974;7.824;2022-11-20T04:22:25;3.60;;;2.40;;
8213;SDS011;4148;47.974;7.824;2022-11-20T04:24:53;3.50;;;2.90;;
8213;SDS011;4148;47.974;7.824;2022-11-20T04:27:21;4.47;;;2.20;;
8213;SDS011;4148;47.974;7.824;2022-11-20T04:29:48;3.10;;;2.30;;
8213;SDS011;4148;47.974;7.824;2022-11-20T04:32:16;3.50;;;1.67;;
8213;SDS011;4148;47.974;7.824;2022-11-20T04:34:44;3.50;;;2.00;;
8213;SDS011;4148;47.974;7.824;2022-11-20T04:37:12;2.47;;;1.67;;
8213;SDS011;4148;47.974;7.824;2022-11-20T04:39:41;2.30;;;1.90;;
8213;SDS011;4148;47.974;7.824;2022-11-20T04:42:09;2.67;;;1.90;;
8213;SDS011;4148;47.974;7.824;2022-11-20T04:44:55;2.30;;;1.70;;
8213;SDS011;4148;47.974;7.824;2022-11-20T04:47:24;2.70;;;1.90;;
8213;SDS011;4148;47.974;7.824;2022-11-20T04:49:52;2.60;;;1.97;;
8213;SDS011;4148;47.974;7.824;2022-11-20T04:52:19;2.67;;;1.73;;
8213;SDS011;4148;47.974;7.824;2022-11-20T04:54:49;4.13;;;1.93;;
8213;SDS011;4148;47.974;7.824;2022-11-20T04:57:19;2.33;;;1.60;;
8213;SDS011;4148;47.974;7.824;2022-11-20T04:59:47;2.50;;;1.97;;
8213;SDS011;4148;47.974;7.824;2022-11-20T05:02:14;3.97;;;2.07;;
8213;SDS011;4148;47.974;7.824;2022-11-20T05:04:42;3.80;;;2.10;;
8213;SDS011;4148;47.974;7.824;2022-11-20T05:07:10;2.53;;;2.10;;
8213;SDS011;4148;47.974;7.824;2022-11-20T05:09:38;3.07;;;2.10;;
8213;SDS011;4148;47.974;7.824;2022-11-20T05:12:08;4.07;;;2.40;;
8213;SDS011;4148;47.974;7.824;2022-11-20T05:14:36;4.00;;;2.40;;
8213;SDS011;4148;47.974;7.824;2022-11-20T05:17:04;4.23;;;2.57;;
8213;SDS011;4148;47.974;7.824;2022-11-20T05:19:31;4.10;;;2.27;;
8213;SDS011;4148;47.974;7.824;2022-11-20T05:21:59;3.70;;;2.50;;
8213;SDS011;4148;47.974;7.824;2022-11-20T05:24:27;3.50;;;2.30;;
8213;SDS011;4148;47.974;7.824;2022-11-20T05:26:55;3.30;;;2.67;;
8213;SDS011;4148;47.974;7.824;2022-11-20T05:29:24;4.00;;;2.83;;
8213;SDS011;4148;47.974;7.824;2022-11-20T05:31:52;3.17;;;2.73;;
8213;SDS011;4148;47.974;7.824;2022-11-20T05:34:20;2.70;;;2.30;;
8213;SDS011;4148;47.974;7.824;2022-11-20T05:36:48;3.57;;;2.50;;
8213;SDS011;4148;47.974;7.824;2022-11-20T05:39:15;4.00;;;2.00;;
8213;SDS011;4148;47.974;7.824;2022-11-20T05:41:43;3.13;;;2.50;;
8213;SDS011;4148;47.974;7.824;2022-11-20T05:44:11;3.73;;;2.47;;
8213;SDS011;4148;47.974;7.824;2022-11-20T05:46:41;3.30;;;2.60;;
8213;SDS011;4148;47.974;7.824;2022-11-20T05:49:08;4.33;;;2.73;;
8213;SDS011;4148;47.974;7.824;2022-11-20T05:51:36;3.40;;;2.67;;
8213;SDS011;4148;47.974;7.824;2022-11-20T05:54:04;4.00;;;2.93;;
8213;SDS011;4148;47.974;7.824;2022-11-20T05:56:32;3.93;;;2.60;;
8213;SDS011;4148;47.974;7.824;2022-11-20T05:59:00;5.10;;;2.40;;
8213;SDS011;4148;47.974;7.824;2022-11-20T06:01:28;4.27;;;2.67;;
8213;SDS011;4148;47.974;7.824;2022-11-20T06:03:57;3.87;;;2.23;;
8213;SDS011;4148;47.974;7.824;2022-11-20T06:06:25;3.47;;;2.50;;
8213;SDS011;4148;47.974;7.824;2022-11-20T06:08:53;3.07;;;2.43;;
8213;SDS011;4148;47.974;7.824;2022-11-20T06:11:21;5.77;;;2.67;;
8213;SDS011;4148;47.974;7.824;2022-11-20T06:13:49;3.03;;;2.70;;
8213;SDS011;4148;47.974;7.824;2022-11-20T06:16:18;3.17;;;2.67;;
8213;SDS011;4148;47.974;7.824;2022-11-20T06:18:47;3.17;;;2.43;;
8213;SDS011;4148;47.974;7.824;2022-11-20T06:21:17;4.87;;;2.63;;
8213;SDS011;4148;47.974;7.824;2022-11-20T06:23:46;3.70;;;1.83;;
8213;SDS011;4148;47.974;7.824;2022-11-20T06:26:15;5.70;;;2.33;;
8213;SDS011;4148;47.974;7.824;2022-11-20T06:28:44;3.23;;;2.43;;
8213;SDS011;4148;47.974;7.824;2022-11-20T06:31:13;3.30;;;2.50;;
8213;SDS011;4148;47.974;7.824;2022-11-20T06:33:42;2.83;;;2.20;;
8213;SDS011;4148;47.974;7.824;2022-11-20T06:36:11;6.40;;;3.00;;
8213;SDS011;4148;47.974;7.824;2022-11-20T06:38:41;4.13;;;2.67;;
8213;SDS011;4148;47.974;7.824;2022-11-20T06:41:10;3.07;;;2.20;;
8213;SDS011;4148;47.974;7.824;2022-11-20T06:43:39;3.60;;;2.70;;
8213;SDS011;4148;47.974;7.824;2022-11-20T06:46:08;3.07;;;2.50;;
8213;SDS011;4148;47.974;7.824;2022-11-20T06:48:37;4.07;;;2.60;;
8213;SDS011;4148;47.974;7.824;2022-11-20T06:51:05;3.07;;;2.20;;
8213;SDS011;4148;47.974;7.824;2022-11-20T06:53:34;4.47;;;2.60;;
8213;SDS011;4148;47.974;7.824;2022-11-20T06:56:04;3.60;;;2.70;;
8213;SDS011;4148;47.974;7.824;2022-11-20T06:58:33;3.80;;;2.57;;
8213;SDS011;4148;47.974;7.824;2022-11-20T07:01:03;3.87;;;2.90;;
8213;SDS011;4148;47.974;7.824;2022-11-20T07:03:33;3.63;;;2.60;;
8213;SDS011;4148;47.974;7.824;2022-11-20T07:06:01;3.13;;;2.43;;
8213;SDS011;4148;47.974;7.824;2022-11-20T07:08:30;3.00;;;2.50;;
8213;SDS011;4148;47.974;7.824;2022-11-20T07:10:59;4.33;;;3.63;;
8213;SDS011;4148;47.974;7.824;2022-11-20T07:13:29;3.50;;;2.50;;
8213;SDS011;4148;47.974;7.824;2022-11-20T07:15:59;3.63;;;2.53;;
8213;SDS011;4148;47.974;7.824;2022-11-20T07:18:28;3.00;;;2.70;;
8213;SDS011;4148;47.974;7.824;2022-11-20T07:20:56;3.47;;;2.50;;
8213;SDS011;4148;47.974;7.824;2022-11-20T07:23:26;3.77;;;2.40;;
8213;SDS011;4148;47.974;7.824;2022-11-20T07:25:54;3.13;;;2.47;;
8213;SDS011;4148;47.974;7.824;2022-11-20T07:28:22;3.90;;;2.40;;
8213;SDS011;4148;47.974;7.824;2022-11-20T07:30:52;3.23;;;2.40;;
8213;SDS011;4148;47.974;7.824;2022-11-20T07:33:20;4.10;;;2.37;;
8213;SDS011;4148;47.974;7.824;2022-11-20T07:35:48;2.90;;;2.23;;
8213;SDS011;4148;47.974;7.824;2022-11-20T07:38:16;3.93;;;2.70;;
8213;SDS011;4148;47.974;7.824;2022-11-20T07:40:44;3.00;;;2.27;;
8213;SDS011;4148;47.974;7.824;2022-11-20T07:43:12;3.93;;;2.43;;
8213;SDS011;4148;47.974;7.824;2022-11-20T07:45:40;3.30;;;2.30;;
8213;SDS011;4148;47.974;7.824;2022-11-20T07:48:09;2.70;;;2.30;;
8213;SDS011;4148;47.974;7.824;2022-11-20T07:50:37;3.23;;;2.63;;
8213;SDS011;4148;47.974;7.824;2022-11-20T07:53:05;3.07;;;2.20;;
8213;SDS011;4148;47.974;7.824;2022-11-20T07:55:33;6.90;;;2.20;;
8213;SDS011;4148;47.974;7.824;2022-11-20T07:58:01;5.03;;;2.47;;
8213;SDS011;4148;47.974;7.824;2022-11-20T08:00:28;3.57;;;2.73;;
8213;SDS011;4148;47.974;7.824;2022-11-20T08:02:56;4.17;;;2.67;;
8213;SDS011;4148;47.974;7.824;2022-11-20T08:05:26;3.20;;;2.50;;
8213;SDS011;4148;47.974;7.824;2022-11-20T08:07:54;3.20;;;2.63;;
8213;SDS011;4148;47.974;7.824;2022-11-20T08:10:21;4.23;;;2.90;;
8213;SDS011;4148;47.974;7.824;2022-11-20T08:12:49;6.77;;;3.23;;
8213;SDS011;4148;47.974;7.824;2022-11-20T08:15:36;3.60;;;2.97;;
8213;SDS011;4148;47.974;7.824;2022-11-20T08:18:05;3.87;;;3.03;;
8213;SDS011;4148;47.974;7.824;2022-11-20T08:20:56;3.27;;;2.67;;
8213;SDS011;4148;47.974;7.824;2022-11-20T08:23:24;3.57;;;2.60;;
8213;SDS011;4148;47.974;7.824;2022-11-20T08:25:52;3.57;;;2.83;;
8213;SDS011;4148;47.974;7.824;2022-11-20T08:28:20;2.93;;;2.43;;
8213;SDS011;4148;47.974;7.824;2022-11-20T08:30:48;4.17;;;2.70;;
8213;SDS011;4148;47.974;7.824;2022-11-20T08:33:16;3.63;;;2.30;;
8213;SDS011;4148;47.974;7.824;2022-11-20T08:35:45;3.20;;;2.57;;
8213;SDS011;4148;47.974;7.824;2022-11-20T08:38:14;10.50;;;2.90;;
8213;SDS011;4148;47.974;7.824;2022-11-20T08:40:42;4.13;;;2.73;;
8213;SDS011;4148;47.974;7.824;2022-11-20T08:43:31;3.37;;;2.70;;
8213;SDS011;4148;47.974;7.824;2022-11-20T08:45:59;4.33;;;2.63;;
8213;SDS011;4148;47.974;7.824;2022-11-20T08:48:27;4.90;;;2.57;;
8213;SDS011;4148;47.974;7.824;2022-11-20T08:50:57;5.77;;;2.77;;
8213;SDS011;4148;47.974;7.824;2022-11-20T08:53:27;3.80;;;2.60;;
8213;SDS011;4148;47.974;7.824;2022-11-20T08:55:56;5.70;;;2.33;;
8213;SDS011;4148;47.974;7.824;2022-11-20T08:58:24;5.33;;;2.57;;
8213;SDS011;4148;47.974;7.824;2022-11-20T09:00:53;3.87;;;2.83;;
8213;SDS011;4148;47.974;7.824;2022-11-20T09:03:21;5.13;;;2.60;;
8213;SDS011;4148;47.974;7.824;2022-11-20T09:05:57;2.50;;;2.30;;
8213;SDS011;4148;47.974;7.824;2022-11-20T09:08:27;3.63;;;2.50;;
8213;SDS011;4148;47.974;7.824;2022-11-20T09:10:56;5.30;;;2.80;;
8213;SDS011;4148;47.974;7.824;2022-11-20T09:13:25;5.53;;;3.27;;
8213;SDS011;4148;47.974;7.824;2022-11-20T09:15:54;3.30;;;2.50;;
8213;SDS011;4148;47.974;7.824;2022-11-20T09:18:23;4.83;;;3.00;;
8213;SDS011;4148;47.974;7.824;2022-11-20T09:20:51;5.90;;;3.67;;
8213;SDS011;4148;47.974;7.824;2022-11-20T09:23:19;3.80;;;2.63;;
8213;SDS011;4148;47.974;7.824;2022-11-20T09:25:48;6.10;;;2.70;;
8213;SDS011;4148;47.974;7.824;2022-11-20T09:28:16;3.93;;;2.47;;
8213;SDS011;4148;47.974;7.824;2022-11-20T09:30:44;4.00;;;2.80;;
8213;SDS011;4148;47.974;7.824;2022-11-20T09:33:12;3.17;;;2.47;;
8213;SDS011;4148;47.974;7.824;2022-11-20T09:35:40;3.40;;;2.53;;
8213;SDS011;4148;47.974;7.824;2022-11-20T09:38:09;4.20;;;3.00;;
8213;SDS011;4148;47.974;7.824;2022-11-20T09:40:38;5.90;;;2.77;;
8213;SDS011;4148;47.974;7.824;2022-11-20T09:43:13;5.50;;;2.70;;
8213;SDS011;4148;47.974;7.824;2022-11-20T09:45:47;4.07;;;2.40;;
8213;SDS011;4148;47.974;7.824;2022-11-20T09:51:30;4.47;;;2.80;;
8213;SDS011;4148;47.974;7.824;2022-11-20T09:54:09;5.47;;;2.83;;
8213;SDS011;4148;47.974;7.824;2022-11-20T09:56:44;2.47;;;2.27;;
8213;SDS011;4148;47.974;7.824;2022-11-20T09:59:21;2.97;;;2.23;;
8213;SDS011;4148;47.974;7.824;2022-11-20T10:01:56;4.40;;;2.80;;
8213;SDS011;4148;47.974;7.824;2022-11-20T10:04:25;4.60;;;3.27;;
8213;SDS011;4148;47.974;7.824;2022-11-20T10:07:02;5.57;;;2.90;;
8213;SDS011;4148;47.974;7.824;2022-11-20T10:09:55;6.60;;;2.77;;
8213;SDS011;4148;47.974;7.824;2022-11-20T10:12:25;3.43;;;2.77;;
8213;SDS011;4148;47.974;7.824;2022-11-20T10:15:04;4.07;;;2.67;;
8213;SDS011;4148;47.974;7.824;2022-11-20T10:17:46;3.50;;;2.60;;
8213;SDS011;4148;47.974;7.824;2022-11-20T10:20:27;8.40;;;3.13;;
8213;SDS011;4148;47.974;7.824;2022-11-20T10:23:04;3.20;;;2.80;;
8213;SDS011;4148;47.974;7.824;2022-11-20T10:25:52;4.77;;;2.80;;
8213;SDS011;4148;47.974;7.824;2022-11-20T10:28:29;5.17;;;3.33;;
8213;SDS011;4148;47.974;7.824;2022-11-20T10:31:08;4.30;;;2.93;;
8213;SDS011;4148;47.974;7.824;2022-11-20T10:33:39;4.43;;;3.03;;
8213;SDS011;4148;47.974;7.824;2022-11-20T10:36:33;5.30;;;2.97;;
8213;SDS011;4148;47.974;7.824;2022-11-20T10:39:06;5.30;;;3.57;;
8213;SDS011;4148;47.974;7.824;2022-11-20T10:41:42;3.90;;;3.30;;
8213;SDS011;4148;47.974;7.824;2022-11-20T10:44:14;4.03;;;3.00;;
8213;SDS011;4148;47.974;7.824;2022-11-20T10:47:11;3.90;;;3.00;;
8213;SDS011;4148;47.974;7.824;2022-11-20T10:49:41;4.73;;;3.03;;
8213;SDS011;4148;47.974;7.824;2022-11-20T10:52:11;4.27;;;3.33;;
8213;SDS011;4148;47.974;7.824;2022-11-20T10:54:47;3.60;;;2.80;;
8213;SDS011;4148;47.974;7.824;2022-11-20T10:57:25;7.47;;;3.37;;
8213;SDS011;4148;47.974;7.824;2022-11-20T11:00:06;3.40;;;3.10;;
8213;SDS011;4148;47.974;7.824;2022-11-20T11:02:41;5.67;;;3.23;;
8213;SDS011;4148;47.974;7.824;2022-11-20T11:05:17;3.80;;;3.20;;
8213;SDS011;4148;47.974;7.824;2022-11-20T11:07:52;5.80;;;3.07;;
8213;SDS011;4148;47.974;7.824;2022-11-20T11:10:22;3.60;;;3.10;;
8213;SDS011;4148;47.974;7.824;2022-11-20T11:12:55;4.90;;;2.73;;
8213;SDS011;4148;47.974;7.824;2022-11-20T11:15:27;5.37;;;3.50;;
8213;SDS011;4148;47.974;7.824;2022-11-20T11:17:57;4.70;;;3.30;;
8213;SDS011;4148;47.974;7.824;2022-11-20T11:20:25;4.37;;;3.07;;
8213;SDS011;4148;47.974;7.824;2022-11-20T11:22:54;3.87;;;3.30;;
8213;SDS011;4148;47.974;7.824;2022-11-20T11:25:27;3.67;;;2.87;;
8213;SDS011;4148;47.974;7.824;2022-11-20T11:28:00;3.80;;;2.90;;
8213;SDS011;4148;47.974;7.824;2022-11-20T11:30:29;3.70;;;2.47;;
8213;SDS011;4148;47.974;7.824;2022-11-20T11:33:10;4.53;;;2.40;;
8213;SDS011;4148;47.974;7.824;2022-11-20T11:35:43;3.23;;;2.67;;
8213;SDS011;4148;47.974;7.824;2022-11-20T11:38:17;5.60;;;2.97;;
8213;SDS011;4148;47.974;7.824;2022-11-20T11:40:49;5.90;;;3.17;;
8213;SDS011;4148;47.974;7.824;2022-11-20T11:43:21;5.17;;;2.43;;
8213;SDS011;4148;47.974;7.824;2022-11-20T11:46:23;3.30;;;2.20;;
8213;SDS011;4148;47.974;7.824;2022-11-20T11:48:56;3.77;;;2.07;;
8213;SDS011;4148;47.974;7.824;2022-11-20T11:51:26;6.10;;;2.20;;
8213;SDS011;4148;47.974;7.824;2022-11-20T11:53:58;2.87;;;2.10;;
8213;SDS011;4148;47.974;7.824;2022-11-20T11:56:28;4.07;;;1.97;;
8213;SDS011;4148;47.974;7.824;2022-11-20T11:58:59;5.70;;;2.00;;
8213;SDS011;4148;47.974;7.824;2022-11-20T12:01:32;3.10;;;1.73;;
8213;SDS011;4148;47.974;7.824;2022-11-20T12:04:11;3.70;;;2.10;;
8213;SDS011;4148;47.974;7.824;2022-11-20T12:06:45;4.77;;;2.20;;
8213;SDS011;4148;47.974;7.824;2022-11-20T12:09:18;2.90;;;2.37;;
8213;SDS011;4148;47.974;7.824;2022-11-20T12:11:52;2.23;;;1.83;;
8213;SDS011;4148;47.974;7.824;2022-11-20T12:14:27;2.47;;;1.93;;
8213;SDS011;4148;47.974;7.824;2022-11-20T12:17:01;3.67;;;1.57;;
8213;SDS011;4148;47.974;7.824;2022-11-20T12:19:31;2.90;;;1.80;;
8213;SDS011;4148;47.974;7.824;2022-11-20T12:22:02;2.40;;;1.70;;
8213;SDS011;4148;47.974;7.824;2022-11-20T12:24:42;2.77;;;1.70;;
8213;SDS011;4148;47.974;7.824;2022-11-20T12:27:34;3.73;;;2.17;;
8213;SDS011;4148;47.974;7.824;2022-11-20T12:30:20;3.23;;;1.90;;
8213;SDS011;4148;47.974;7.824;2022-11-20T12:32:54;6.03;;;2.37;;
8213;SDS011;4148;47.974;7.824;2022-11-20T12:35:44;3.70;;;1.97;;
8213;SDS011;4148;47.974;7.824;2022-11-20T12:38:26;3.03;;;1.90;;
8213;SDS011;4148;47.974;7.824;2022-11-20T12:41:21;4.00;;;2.57;;
8213;SDS011;4148;47.974;7.824;2022-11-20T12:44:17;5.13;;;2.40;;
8213;SDS011;4148;47.974;7.824;2022-11-20T12:47:13;4.37;;;2.13;;
8213;SDS011;4148;47.974;7.824;2022-11-20T12:49:52;5.50;;;2.47;;
8213;SDS011;4148;47.974;7.824;2022-11-20T12:52:34;3.50;;;2.23;;
8213;SDS011;4148;47.974;7.824;2022-11-20T12:55:10;4.33;;;2.23;;
8213;SDS011;4148;47.974;7.824;2022-11-20T12:57:58;4.83;;;2.57;;
8213;SDS011;4148;47.974;7.824;2022-11-20T13:00:32;3.17;;;2.40;;
8213;SDS011;4148;47.974;7.824;2022-11-20T13:03:06;3.07;;;2.33;;
8213;SDS011;4148;47.974;7.824;2022-11-20T13:05:55;3.30;;;2.17;;
8213;SDS011;4148;47.974;7.824;2022-11-20T13:08:34;2.37;;;1.63;;
8213;SDS011;4148;47.974;7.824;2022-11-20T13:11:07;4.20;;;2.10;;
8213;SDS011;4148;47.974;7.824;2022-11-20T13:13:42;2.50;;;1.70;;
8213;SDS011;4148;47.974;7.824;2022-11-20T13:16:17;4.23;;;2.00;;
8213;SDS011;4148;47.974;7.824;2022-11-20T13:18:50;3.50;;;1.80;;
8213;SDS011;4148;47.974;7.824;2022-11-20T13:21:20;4.27;;;1.87;;
8213;SDS011;4148;47.974;7.824;2022-11-20T13:23:51;3.37;;;1.43;;
8213;SDS011;4148;47.974;7.824;2022-11-20T13:26:19;3.80;;;1.87;;
8213;SDS011;4148;47.974;7.824;2022-11-20T13:28:59;5.30;;;1.50;;
8213;SDS011;4148;47.974;7.824;2022-11-20T13:31:31;2.40;;;1.40;;
8213;SDS011;4148;47.974;7.824;2022-11-20T13:34:01;2.73;;;1.50;;
8213;SDS011;4148;47.974;7.824;2022-11-20T13:36:33;3.87;;;1.80;;
8213;SDS011;4148;47.974;7.824;2022-11-20T13:39:04;3.83;;;1.70;;
8213;SDS011;4148;47.974;7.824;2022-11-20T13:41:33;4.43;;;1.50;;
8213;SDS011;4148;47.974;7.824;2022-11-20T13:44:10;3.60;;;1.50;;
8213;SDS011;4148;47.974;7.824;2022-11-20T13:46:42;3.67;;;1.80;;
8213;SDS011;4148;47.974;7.824;2022-11-20T13:49:16;3.40;;;1.50;;
8213;SDS011;4148;47.974;7.824;2022-11-20T13:51:55;3.50;;;1.80;;
8213;SDS011;4148;47.974;7.824;2022-11-20T13:57:44;2.33;;;1.27;;
8213;SDS011;4148;47.974;7.824;2022-11-20T14:00:26;3.30;;;1.80;;
8213;SDS011;4148;47.974;7.824;2022-11-20T14:03:07;4.53;;;1.83;;
8213;SDS011;4148;47.974;7.824;2022-11-20T14:05:45;3.20;;;1.90;;
8213;SDS011;4148;47.974;7.824;2022-11-20T14:08:21;2.23;;;1.60;;
8213;SDS011;4148;47.974;7.824;2022-11-20T14:11:12;2.10;;;1.67;;
8213;SDS011;4148;47.974;7.824;2022-11-20T14:13:53;3.53;;;1.53;;
8213;SDS011;4148;47.974;7.824;2022-11-20T14:16:23;2.60;;;1.60;;
8213;SDS011;4148;47.974;7.824;2022-11-20T14:18:52;3.93;;;2.00;;
8213;SDS011;4148;47.974;7.824;2022-11-20T14:21:22;2.90;;;2.00;;
8213;SDS011;4148;47.974;7.824;2022-11-20T14:23:52;4.90;;;2.43;;
8213;SDS011;4148;47.974;7.824;2022-11-20T14:26:22;4.77;;;1.80;;
8213;SDS011;4148;47.974;7.824;2022-11-20T14:28:50;7.10;;;1.93;;
8213;SDS011;4148;47.974;7.824;2022-11-20T14:31:21;3.80;;;1.70;;
8213;SDS011;4148;47.974;7.824;2022-11-20T14:33:51;3.63;;;2.10;;
8213;SDS011;4148;47.974;7.824;2022-11-20T14:36:20;5.00;;;2.70;;
8213;SDS011;4148;47.974;7.824;2022-11-20T14:38:50;4.50;;;2.20;;
8213;SDS011;4148;47.974;7.824;2022-11-20T14:41:20;3.60;;;1.87;;
8213;SDS011;4148;47.974;7.824;2022-11-20T14:43:52;4.63;;;2.20;;
8213;SDS011;4148;47.974;7.824;2022-11-20T14:46:23;3.80;;;2.10;;
8213;SDS011;4148;47.974;7.824;2022-11-20T14:48:53;3.63;;;1.90;;
8213;SDS011;4148;47.974;7.824;2022-11-20T14:51:25;5.03;;;1.70;;
8213;SDS011;4148;47.974;7.824;2022-11-20T14:54:07;4.13;;;1.90;;
8213;SDS011;4148;47.974;7.824;2022-11-20T14:56:36;2.57;;;1.90;;
8213;SDS011;4148;47.974;7.824;2022-11-20T14:59:05;3.60;;;2.33;;
8213;SDS011;4148;47.974;7.824;2022-11-20T15:01:34;4.70;;;2.23;;
8213;SDS011;4148;47.974;7.824;2022-11-20T15:04:05;5.30;;;2.90;;
8213;SDS011;4148;47.974;7.824;2022-11-20T15:06:36;3.23;;;2.80;;
8213;SDS011;4148;47.974;7.824;2022-11-20T15:09:04;6.43;;;3.73;;
8213;SDS011;4148;47.974;7.824;2022-11-20T15:11:40;2.90;;;1.90;;
8213;SDS011;4148;47.974;7.824;2022-11-20T15:14:22;4.67;;;2.50;;
8213;SDS011;4148;47.974;7.824;2022-11-20T15:16:51;4.17;;;2.70;;
8213;SDS011;4148;47.974;7.824;2022-11-20T15:19:20;9.13;;;3.70;;
8213;SDS011;4148;47.974;7.824;2022-11-20T15:21:50;6.30;;;2.50;;
8213;SDS011;4148;47.974;7.824;2022-11-20T15:24:18;3.67;;;1.97;;
8213;SDS011;4148;47.974;7.824;2022-11-20T15:26:47;3.60;;;2.30;;
8213;SDS011;4148;47.974;7.824;2022-11-20T15:29:15;4.43;;;2.33;;
8213;SDS011;4148;47.974;7.824;2022-11-20T15:31:46;2.40;;;1.83;;
8213;SDS011;4148;47.974;7.824;2022-11-20T15:34:14;2.03;;;1.60;;
8213;SDS011;4148;47.974;7.824;2022-11-20T15:36:43;3.90;;;1.57;;
8213;SDS011;4148;47.974;7.824;2022-11-20T15:39:11;14.20;;;2.30;;
8213;SDS011;4148;47.974;7.824;2022-11-20T15:41:39;11.87;;;2.67;;
8213;SDS011;4148;47.974;7.824;2022-11-20T15:44:06;3.83;;;2.40;;
8213;SDS011;4148;47.974;7.824;2022-11-20T15:46:35;3.20;;;2.20;;
8213;SDS011;4148;47.974;7.824;2022-11-20T15:49:10;5.20;;;2.57;;